Time;durP1;ratioP1;P1;durP2;ratioP2;P2;SDS_P1;SDS_P2;PMS_P1;PMS_P2;Temp;Humidity;BMP_temperature;BMP_pressure;BME280_temperature;BME280_humidity;BME280_pressure;Samples;Min_cycle;Max_cycle;Signal;HPM_P1;HPM_P2
2022/12/29 00:01:18;;;;;;;30.23;13.23;;;;;;;5.42;68.47;102021.53;4931853;29;20503;-81
2022/12/29 00:03:46;;;;;;;33.70;12.32;;;;;;;5.45;68.48;102022.28;4931025;29;20048;-81
2022/12/29 00:06:11;;;;;;;25.90;11.63;;;;;;;5.47;68.17;102025.75;4915769;29;20522;-82
2022/12/29 00:08:40;;;;;;;23.50;10.15;;;;;;;5.34;68.41;102011.16;4931301;29;20119;-83
2022/12/29 00:11:13;;;;;;;25.85;10.50;;;;;;;5.35;68.63;102015.56;4933092;29;20036;-81
2022/12/29 00:16:23;;;;;;;26.23;10.43;;;;;;;5.35;68.73;102010.22;4978559;28;20050;-80
2022/12/29 00:18:49;;;;;;;33.88;10.70;;;;;;;5.33;68.74;102011.22;4975802;28;20086;-81
2022/12/29 00:35:10;;;;;;;23.67;9.68;;;;;;;5.31;69.66;102021.06;4972715;28;20061;-82
2022/12/29 00:45:52;;;;;;;20.80;9.40;;;;;;;5.37;70.09;102013.72;4966421;28;20105;-82
2022/12/29 00:51:02;;;;;;;21.73;9.90;;;;;;;5.18;70.52;102018.00;4952665;29;20042;-81
2022/12/29 00:53:27;;;;;;;34.05;9.00;;;;;;;5.26;70.49;102015.06;4930728;29;20035;-82
2022/12/29 00:55:53;;;;;;;31.52;9.23;;;;;;;5.25;70.73;102018.63;4931150;29;20047;-81
2022/12/29 00:58:18;;;;;;;21.52;10.15;;;;;;;5.23;70.51;102005.34;4930728;29;20044;-81
2022/12/29 01:00:44;;;;;;;25.30;8.15;;;;;;;5.31;70.74;102013.94;4933655;29;20028;-81
2022/12/29 01:03:09;;;;;;;15.98;8.63;;;;;;;5.32;70.84;102007.66;4934268;29;20121;-82
2022/12/29 01:05:38;;;;;;;18.52;9.20;;;;;;;5.19;71.28;101993.06;4934559;29;20044;-81
2022/12/29 01:08:03;;;;;;;18.67;8.93;;;;;;;5.26;71.10;101999.91;4934601;29;20526;-81
2022/12/29 01:10:29;;;;;;;30.10;8.98;;;;;;;5.29;71.00;101981.09;4934573;29;20123;-82
2022/12/29 01:12:54;;;;;;;15.60;7.55;;;;;;;5.31;70.85;101981.06;4934485;29;20032;-81
2022/12/29 01:15:20;;;;;;;28.23;9.45;;;;;;;5.28;70.95;101982.06;4935320;29;20051;-80
2022/12/29 01:17:45;;;;;;;19.13;7.93;;;;;;;5.32;71.07;101983.66;4936647;29;20067;-81
2022/12/29 01:20:11;;;;;;;26.23;9.18;;;;;;;5.31;71.37;101986.41;4936459;29;20023;-81
2022/12/29 01:22:37;;;;;;;26.15;9.15;;;;;;;5.30;71.62;101971.31;4934261;29;20036;-81
2022/12/29 01:25:04;;;;;;;25.00;11.05;;;;;;;5.29;71.00;101959.78;4933623;29;20051;-81
2022/12/29 01:27:29;;;;;;;26.38;10.25;;;;;;;5.39;71.21;101969.16;4933904;29;20043;-82
2022/12/29 01:29:55;;;;;;;23.48;9.85;;;;;;;5.44;70.83;101964.50;4935880;28;20032;-82
2022/12/29 01:32:20;;;;;;;16.33;9.18;;;;;;;5.44;71.08;101964.50;4955692;28;20390;-81
2022/12/29 01:34:46;;;;;;;19.08;8.77;;;;;;;5.38;71.09;101961.25;4955578;29;20057;-82
2022/12/29 01:37:11;;;;;;;21.88;7.97;;;;;;;5.35;71.27;101951.53;4937957;29;20031;-80
2022/12/29 01:39:37;;;;;;;24.40;8.93;;;;;;;5.42;71.04;101953.03;4955676;28;20023;-81
2022/12/29 01:42:03;;;;;;;20.10;8.48;;;;;;;5.44;71.05;101940.50;4955413;28;20403;-81
2022/12/29 01:44:57;;;;;;;24.33;8.40;;;;;;;5.46;71.09;101928.00;4955354;28;20126;-80
2022/12/29 01:47:31;;;;;;;18.52;8.18;;;;;;;5.35;71.23;101919.50;4972607;28;20046;-81
2022/12/29 01:50:00;;;;;;;24.25;8.98;;;;;;;5.34;71.35;101931.13;4974967;28;20089;-81
2022/12/29 01:52:29;;;;;;;19.35;9.02;;;;;;;5.34;71.27;101931.13;4974779;28;20031;-80
2022/12/29 01:54:56;;;;;;;19.65;7.88;;;;;;;5.33;71.52;101916.06;4974727;28;20497;-81
2022/12/29 01:57:28;;;;;;;19.63;8.90;;;;;;;5.35;71.57;101913.34;4974582;28;20103;-81
2022/12/29 01:59:59;;;;;;;19.13;7.22;;;;;;;5.33;71.62;101915.19;4974605;28;20022;-81
2022/12/29 02:02:25;;;;;;;27.15;8.25;;;;;;;5.28;71.72;101907.38;4974320;28;20038;-82
2022/12/29 02:04:53;;;;;;;31.65;8.32;;;;;;;5.25;71.95;101910.16;4974204;28;20422;-81
2022/12/29 02:07:21;;;;;;;18.50;6.55;;;;;;;5.25;71.95;101910.16;4973803;28;20490;-81
2022/12/29 02:09:48;;;;;;;22.38;6.80;;;;;;;5.24;72.49;101899.53;4973951;28;20338;-81
2022/12/29 02:12:14;;;;;;;25.55;9.38;;;;;;;5.27;72.36;101905.63;4973255;28;20047;-81
2022/12/29 02:14:40;;;;;;;17.45;7.90;;;;;;;5.30;72.40;101900.16;4956683;28;20053;-81
2022/12/29 02:17:13;;;;;;;31.25;11.05;;;;;;;5.39;72.00;101913.16;4974345;28;20033;-81
2022/12/29 02:20:20;;;;;;;26.85;10.13;;;;;;;5.40;72.07;101911.34;4974545;28;20027;-81
2022/12/29 02:23:16;;;;;;;32.08;11.20;;;;;;;5.26;72.17;101906.53;4917078;29;20119;-80
2022/12/29 02:25:55;;;;;;;26.25;10.65;;;;;;;5.21;72.57;101905.00;4920509;29;20055;-82
2022/12/29 02:28:26;;;;;;;32.47;12.18;;;;;;;5.28;72.51;101901.16;4914834;29;20042;-81
2022/12/29 02:31:06;;;;;;;27.15;9.98;;;;;;;5.23;72.64;101901.31;4913981;29;20404;-82
2022/12/29 02:33:47;;;;;;;29.63;10.60;;;;;;;5.17;73.19;101898.91;4914587;29;20038;-82
2022/12/29 02:36:31;;;;;;;26.38;10.82;;;;;;;5.10;73.33;101897.41;4914247;29;20036;-81
2022/12/29 02:39:10;;;;;;;32.53;12.25;;;;;;;5.05;73.57;101880.72;4914000;29;20038;-81
2022/12/29 02:42:01;;;;;;;32.15;11.23;;;;;;;5.14;73.83;101892.81;4914497;29;20036;-81
2022/12/29 02:44:45;;;;;;;25.15;11.43;;;;;;;5.11;73.94;101883.13;4920152;29;20040;-81
2022/12/29 02:47:22;;;;;;;26.10;10.00;;;;;;;5.10;74.14;101878.75;4934183;29;20056;-81
2022/12/29 02:49:57;;;;;;;35.00;11.43;;;;;;;5.15;74.33;101884.75;4932616;29;20040;-81
2022/12/29 02:52:31;;;;;;;20.05;7.97;;;;;;;5.08;74.39;101872.59;4923070;29;20114;-80
2022/12/29 02:54:58;;;;;;;17.38;8.52;;;;;;;5.08;74.47;101877.06;4923182;29;20039;-81
2022/12/29 02:57:24;;;;;;;20.58;8.40;;;;;;;5.12;74.74;101884.88;4964088;28;20493;-81
2022/12/29 03:00:13;;;;;;;20.73;8.73;;;;;;;5.16;74.66;101886.50;4974099;28;20038;-81
2022/12/29 03:02:48;;;;;;;25.00;9.82;;;;;;;5.13;74.70;101896.44;4973036;28;20038;-81
2022/12/29 03:05:32;;;;;;;25.20;9.38;;;;;;;5.09;75.12;101885.00;4973386;28;20023;-82
2022/12/29 03:07:58;;;;;;;21.02;8.52;;;;;;;5.16;75.02;101875.84;4973136;28;20065;-80
2022/12/29 03:10:48;;;;;;;23.42;8.60;;;;;;;5.22;75.05;101870.28;4972923;28;20482;-81
2022/12/29 03:16:18;;;;;;;29.90;8.55;;;;;;;5.21;74.76;101871.19;4972590;28;20041;-82
2022/12/29 03:18:56;;;;;;;22.47;7.97;;;;;;;5.21;74.67;101867.66;4973342;28;20042;-81
2022/12/29 03:24:38;;;;;;;24.30;8.55;;;;;;;5.16;75.13;101872.31;4972958;28;20483;-80
2022/12/29 03:27:07;;;;;;;20.27;7.97;;;;;;;5.20;75.16;101872.09;4974588;28;20027;-81
2022/12/29 03:29:38;;;;;;;23.10;9.20;;;;;;;5.19;75.24;101875.72;4975047;28;20019;-81
2022/12/29 03:32:07;;;;;;;22.50;7.80;;;;;;;5.12;75.38;101879.56;4956561;28;20489;-82
2022/12/29 03:34:34;;;;;;;29.00;9.23;;;;;;;5.24;75.13;101883.53;4972473;28;20407;-81
2022/12/29 03:37:09;;;;;;;36.65;15.07;;;;;;;5.25;75.25;101895.94;4972190;28;20490;-81
2022/12/29 03:39:34;;;;;;;19.98;7.50;;;;;;;5.19;75.33;101890.84;4971967;28;20413;-81
2022/12/29 03:42:06;;;;;;;15.63;6.90;;;;;;;5.21;75.11;101889.88;4972139;28;20043;-81
2022/12/29 03:44:37;;;;;;;20.58;7.32;;;;;;;5.24;74.83;101902.19;4972268;28;20136;-82
2022/12/29 03:47:04;;;;;;;19.27;8.27;;;;;;;5.18;75.29;101899.78;4972018;28;20532;-82
2022/12/29 03:49:29;;;;;;;16.85;8.15;;;;;;;5.23;75.38;101906.66;4972203;28;20030;-81
2022/12/29 03:51:55;;;;;;;23.73;7.88;;;;;;;5.26;75.64;101898.53;4971990;28;20030;-81
2022/12/29 03:54:20;;;;;;;13.45;7.15;;;;;;;5.26;75.53;101909.22;4972118;28;20023;-80
2022/12/29 03:56:45;;;;;;;22.08;8.20;;;;;;;5.19;75.11;101902.41;4971826;28;20026;-82
2022/12/29 03:59:11;;;;;;;27.38;9.45;;;;;;;5.18;75.60;101908.66;4971937;28;20127;-81
2022/12/29 04:01:36;;;;;;;37.15;8.55;;;;;;;5.11;75.72;101899.13;4971900;28;20026;-80
2022/12/29 04:04:02;;;;;;;22.00;9.20;;;;;;;5.14;76.16;101915.00;4971617;28;20121;-81
2022/12/29 04:06:27;;;;;;;21.42;10.23;;;;;;;5.18;76.39;101915.78;4971528;28;20062;-81
2022/12/29 04:08:53;;;;;;;23.80;9.07;;;;;;;5.18;76.52;101921.97;4971766;28;20027;-81
2022/12/29 04:11:18;;;;;;;20.45;9.40;;;;;;;5.25;76.66;101922.63;4972545;28;20046;-81
2022/12/29 04:13:44;;;;;;;25.50;10.48;;;;;;;5.26;76.67;101911.03;4972320;28;20141;-82
2022/12/29 04:16:09;;;;;;;18.88;8.52;;;;;;;5.26;76.41;101925.22;4971843;28;20514;-82
2022/12/29 04:18:34;;;;;;;24.60;10.23;;;;;;;5.28;76.37;101917.16;4971892;28;20027;-82
2022/12/29 04:21:00;;;;;;;26.48;8.48;;;;;;;5.25;76.66;101911.94;4972429;28;20037;-82
2022/12/29 04:23:27;;;;;;;23.65;9.57;;;;;;;5.32;76.42;101922.31;4971970;28;20034;-80
2022/12/29 04:25:53;;;;;;;20.13;8.98;;;;;;;5.29;76.32;101919.75;4972061;28;20035;-81
2022/12/29 04:28:18;;;;;;;28.08;9.07;;;;;;;5.29;76.47;101918.91;4972164;28;20034;-80
2022/12/29 04:30:44;;;;;;;20.33;9.30;;;;;;;5.31;76.28;101917.91;4955872;28;20094;-81
2022/12/29 04:33:10;;;;;;;20.35;8.82;;;;;;;5.30;76.44;101921.50;4983166;28;20035;-81
2022/12/29 04:35:36;;;;;;;38.70;10.32;;;;;;;5.25;76.69;101912.81;4976929;28;20049;-81
2022/12/29 04:38:01;;;;;;;30.00;9.93;;;;;;;5.34;76.69;101927.59;4976412;28;20689;-81
2022/12/29 04:40:27;;;;;;;18.73;10.20;;;;;;;5.45;76.53;101920.03;4975838;28;20111;-81
2022/12/29 04:42:52;;;;;;;32.55;9.95;;;;;;;5.46;76.37;101906.66;4975593;28;20077;-81
2022/12/29 04:45:18;;;;;;;34.65;10.25;;;;;;;5.48;76.22;101912.78;4975191;28;20030;-81
2022/12/29 04:47:43;;;;;;;41.97;11.35;;;;;;;5.50;76.13;101916.25;4975431;28;20122;-81
2022/12/29 04:50:09;;;;;;;54.05;13.40;;;;;;;5.50;76.01;101924.25;4977628;28;20474;-81
2022/12/29 04:52:35;;;;;;;78.38;14.05;;;;;;;5.49;75.68;101927.88;4975459;28;20525;-81
2022/12/29 04:55:01;;;;;;;121.13;20.33;;;;;;;5.47;75.99;101919.03;4975312;28;20106;-80
2022/12/29 04:57:27;;;;;;;91.15;14.48;;;;;;;5.50;75.96;101912.72;4975201;28;20022;-81
2022/12/29 04:59:52;;;;;;;73.07;15.32;;;;;;;5.50;75.98;101918.91;4975377;28;20055;-82
2022/12/29 05:02:18;;;;;;;57.60;13.75;;;;;;;5.49;75.64;101917.19;4975644;28;20142;-81
2022/12/29 05:04:43;;;;;;;110.72;19.50;;;;;;;5.50;75.76;101923.41;4975761;28;20600;-80
2022/12/29 05:07:09;;;;;;;89.57;18.27;;;;;;;5.46;75.85;101925.31;4976577;28;20033;-80
2022/12/29 05:09:34;;;;;;;64.68;17.27;;;;;;;5.40;76.26;101933.56;4975334;28;20110;-82
2022/12/29 05:12:00;;;;;;;110.25;20.00;;;;;;;5.37;76.79;101920.34;4975368;28;20405;-81
2022/12/29 05:14:26;;;;;;;76.53;17.27;;;;;;;5.44;76.81;101924.50;4975459;28;20478;-81
2022/12/29 05:16:51;;;;;;;78.47;15.65;;;;;;;5.41;76.93;101907.75;4975006;28;20418;-82
2022/12/29 05:19:16;;;;;;;59.67;15.60;;;;;;;5.47;76.53;101919.03;4974950;28;20026;-81
2022/12/29 05:21:43;;;;;;;76.00;17.67;;;;;;;5.46;77.22;101919.09;4975515;28;20034;-81
2022/12/29 05:24:08;;;;;;;79.15;17.55;;;;;;;5.42;76.84;101909.47;4958095;28;20027;-81
2022/12/29 05:26:34;;;;;;;54.33;14.40;;;;;;;5.47;76.64;101916.38;4975546;28;20118;-80
2022/12/29 05:28:59;;;;;;;81.15;17.23;;;;;;;5.51;76.93;101914.44;4974826;28;20549;-81
2022/12/29 05:31:26;;;;;;;60.85;16.13;;;;;;;5.52;76.76;101915.31;4974928;28;20492;-82
2022/12/29 05:33:51;;;;;;;51.63;14.13;;;;;;;5.56;76.76;101923.16;4974715;28;20383;-81
2022/12/29 05:36:17;;;;;;;64.30;15.63;;;;;;;5.57;76.99;101908.88;4976273;28;20030;-81
2022/12/29 05:38:42;;;;;;;55.30;15.75;;;;;;;5.60;76.46;101908.75;4980358;28;20038;-81
2022/12/29 05:41:07;;;;;;;58.38;18.20;;;;;;;5.66;76.66;101924.50;4978797;28;20019;-81
2022/12/29 05:43:33;;;;;;;45.80;15.68;;;;;;;5.67;76.28;101920.03;4976204;28;20038;-81
2022/12/29 05:45:58;;;;;;;51.38;15.85;;;;;;;5.56;76.33;101906.28;4975283;28;20050;-82
2022/12/29 05:48:24;;;;;;;53.90;16.23;;;;;;;5.61;76.23;101915.81;4975256;28;20105;-81
2022/12/29 05:50:51;;;;;;;46.45;13.27;;;;;;;5.61;76.38;101920.28;4975457;28;20026;-80
2022/12/29 05:53:17;;;;;;;56.38;14.90;;;;;;;5.59;76.76;101930.16;4975089;28;20034;-81
2022/12/29 05:55:46;;;;;;;57.35;15.48;;;;;;;5.56;76.80;101912.47;4974647;28;20047;-81
2022/12/29 05:58:11;;;;;;;43.83;14.98;;;;;;;5.63;76.59;101923.75;4974641;28;20102;-82
2022/12/29 06:00:37;;;;;;;47.90;16.50;;;;;;;5.65;76.78;101932.59;4974325;28;20062;-81
2022/12/29 06:03:03;;;;;;;47.05;16.23;;;;;;;5.65;76.98;101921.91;4974295;28;20062;-82
2022/12/29 06:05:28;;;;;;;48.28;15.88;;;;;;;5.74;76.72;101929.56;4973938;28;20543;-81
2022/12/29 06:07:53;;;;;;;38.53;13.40;;;;;;;5.73;76.61;101922.47;4974087;28;20035;-81
2022/12/29 06:10:19;;;;;;;57.67;16.48;;;;;;;5.78;76.52;101933.84;4974623;28;20084;-81
2022/12/29 06:12:44;;;;;;;47.22;15.13;;;;;;;5.78;76.58;101928.50;4974380;28;20027;-81
2022/12/29 06:15:10;;;;;;;53.42;15.80;;;;;;;5.83;76.53;101932.72;4957150;28;20022;-81
2022/12/29 06:17:36;;;;;;;54.42;15.20;;;;;;;5.80;76.40;101922.16;4975070;28;20039;-82
2022/12/29 06:20:02;;;;;;;48.40;15.18;;;;;;;5.86;76.63;101931.75;4973773;28;20401;-81
2022/12/29 06:22:28;;;;;;;66.07;16.30;;;;;;;5.90;76.86;101936.03;4973568;28;20362;-81
2022/12/29 06:24:53;;;;;;;193.20;23.13;;;;;;;5.88;76.81;101927.19;4973733;28;20026;-81
2022/12/29 06:27:19;;;;;;;87.10;16.60;;;;;;;5.91;77.13;101929.75;4973942;28;20031;-82
2022/12/29 06:29:44;;;;;;;63.72;16.88;;;;;;;6.01;77.19;101932.00;4974122;28;20472;-81
2022/12/29 06:32:10;;;;;;;77.72;17.17;;;;;;;6.07;77.26;101929.97;4957201;28;20578;-82
2022/12/29 06:34:35;;;;;;;59.30;16.73;;;;;;;6.15;77.23;101928.72;4974759;28;20255;-81
2022/12/29 06:37:02;;;;;;;50.50;15.23;;;;;;;6.15;76.66;101939.41;4976663;28;20026;-81
2022/12/29 06:39:27;;;;;;;61.03;15.13;;;;;;;6.22;77.16;101946.25;4998495;28;20061;-81
2022/12/29 06:41:53;;;;;;;46.00;15.73;;;;;;;6.24;77.01;101922.97;4996915;28;20035;-80
2022/12/29 06:44:20;;;;;;;77.40;19.17;;;;;;;6.38;77.22;101944.66;4990529;28;20058;-83
2022/12/29 06:46:46;;;;;;;52.45;15.23;;;;;;;6.44;77.06;101936.38;4983426;28;20078;-81
2022/12/29 06:49:11;;;;;;;55.05;18.33;;;;;;;6.56;76.88;101935.84;4958282;28;20437;-82
2022/12/29 06:51:37;;;;;;;39.95;14.13;;;;;;;6.63;76.73;101924.88;4975069;28;20503;-80
2022/12/29 06:54:02;;;;;;;39.88;13.30;;;;;;;6.69;76.48;101920.13;4974635;28;20449;-83
2022/12/29 06:56:28;;;;;;;49.90;13.77;;;;;;;6.76;76.90;101910.03;4973054;28;20027;-82
2022/12/29 06:58:53;;;;;;;57.38;15.73;;;;;;;6.93;76.63;101919.00;4973047;28;20039;-82
2022/12/29 07:01:19;;;;;;;30.50;12.10;;;;;;;7.02;76.49;101910.56;4973207;28;20026;-82
2022/12/29 07:03:44;;;;;;;24.25;9.88;;;;;;;7.17;76.36;101922.34;4973825;28;20486;-82
2022/12/29 07:06:09;;;;;;;40.55;11.48;;;;;;;7.30;76.17;101918.19;4975000;28;20027;-81
2022/12/29 07:08:35;;;;;;;24.17;9.43;;;;;;;7.43;76.16;101915.78;4973614;28;20034;-83
2022/12/29 07:11:00;;;;;;;32.08;8.73;;;;;;;7.56;75.79;101920.47;4973626;28;20022;-82
2022/12/29 07:13:26;;;;;;;38.67;10.57;;;;;;;7.63;75.49;101910.31;4973580;28;20039;-81
2022/12/29 07:15:51;;;;;;;24.90;7.15;;;;;;;7.83;75.59;101917.41;4973880;28;20077;-80
2022/12/29 07:18:17;;;;;;;33.60;10.85;;;;;;;7.87;75.35;101898.41;4973348;28;20097;-80
2022/12/29 07:20:42;;;;;;;47.05;9.77;;;;;;;8.00;75.12;101914.72;4973516;28;20478;-82
2022/12/29 07:23:08;;;;;;;23.00;7.40;;;;;;;8.14;74.39;101915.75;4972487;28;20053;-83
2022/12/29 07:25:35;;;;;;;21.90;6.97;;;;;;;8.22;74.33;101920.75;4972518;28;20061;-82
2022/12/29 07:28:02;;;;;;;29.00;7.25;;;;;;;8.20;74.57;101918.13;4974201;28;20031;-82
2022/12/29 07:30:28;;;;;;;20.00;7.82;;;;;;;8.32;74.84;101916.66;4977385;28;20023;-82
2022/12/29 07:32:53;;;;;;;53.33;11.32;;;;;;;8.38;74.38;101924.38;4976484;28;20035;-83
2022/12/29 07:35:19;;;;;;;33.58;12.70;;;;;;;8.41;74.40;101908.16;4975185;28;20039;-82
2022/12/29 07:37:45;;;;;;;18.63;6.60;;;;;;;8.38;73.87;101904.78;4978183;28;20030;-83
2022/12/29 07:40:11;;;;;;;11.35;5.07;;;;;;;8.47;73.70;101918.56;4976516;28;20027;-83
2022/12/29 07:42:36;;;;;;;20.92;7.28;;;;;;;8.54;73.28;101922.66;4974185;28;20031;-82
2022/12/29 07:45:02;;;;;;;39.05;10.40;;;;;;;8.61;73.36;101913.34;4974286;28;20026;-82
2022/12/29 07:47:28;;;;;;;32.95;9.23;;;;;;;8.80;72.85;101923.09;4956543;28;20070;-82
2022/12/29 07:49:53;;;;;;;36.40;8.32;;;;;;;8.81;72.54;101912.28;4959915;29;20517;-83
2022/12/29 07:52:19;;;;;;;33.25;8.35;;;;;;;8.99;72.25;101926.53;4957171;28;20192;-81
2022/12/29 07:54:45;;;;;;;40.15;11.18;;;;;;;9.03;71.85;101925.41;4954301;29;20027;-82
2022/12/29 07:57:10;;;;;;;40.30;12.73;;;;;;;9.08;71.22;101907.25;4953044;28;20035;-81
2022/12/29 07:59:36;;;;;;;39.95;12.55;;;;;;;9.12;70.94;101924.91;4953233;28;20028;-83
2022/12/29 08:02:01;;;;;;;44.33;12.98;;;;;;;9.23;70.79;101906.41;4952873;29;20023;-81
2022/12/29 08:04:26;;;;;;;36.15;8.75;;;;;;;9.37;70.15;101903.81;4952474;29;20097;-82
2022/12/29 08:06:52;;;;;;;42.38;10.07;;;;;;;9.41;69.81;101905.38;4952995;29;20031;-81
2022/12/29 08:09:17;;;;;;;23.88;7.88;;;;;;;9.54;69.46;101925.19;4952498;28;20405;-81
2022/12/29 08:11:43;;;;;;;21.23;6.88;;;;;;;9.68;69.07;101919.06;4952906;28;20142;-81
2022/12/29 08:14:09;;;;;;;30.73;9.43;;;;;;;9.81;68.58;101915.56;4952260;28;20470;-83
2022/12/29 08:16:35;;;;;;;27.15;8.43;;;;;;;9.95;68.35;101912.09;4952408;28;20039;-81
2022/12/29 08:19:01;;;;;;;40.05;12.65;;;;;;;9.90;67.80;101913.31;4952746;29;20758;-81
2022/12/29 08:21:29;;;;;;;40.75;16.10;;;;;;;9.87;67.10;101913.50;4952559;29;20110;-82
2022/12/29 08:23:55;;;;;;;34.38;8.25;;;;;;;9.95;66.81;101914.78;4952797;29;20034;-82
2022/12/29 08:26:21;;;;;;;35.00;11.18;;;;;;;10.11;66.73;101917.44;4952808;28;20031;-81
2022/12/29 08:28:47;;;;;;;30.33;12.45;;;;;;;10.17;66.49;101914.41;4954338;28;20027;-82
2022/12/29 08:31:12;;;;;;;31.58;10.82;;;;;;;10.33;66.08;101915.25;4953865;28;20196;-81
2022/12/29 08:33:37;;;;;;;28.65;13.93;;;;;;;10.45;65.67;101909.13;4953719;28;20058;-81
2022/12/29 08:36:06;;;;;;;42.00;12.10;;;;;;;10.47;65.10;101915.25;4953687;29;20545;-82
2022/12/29 08:38:32;;;;;;;36.88;15.55;;;;;;;10.63;64.45;101917.91;4952395;29;20031;-82
2022/12/29 08:40:58;;;;;;;37.30;15.90;;;;;;;10.78;64.23;101909.75;4953893;28;20110;-81
2022/12/29 08:43:24;;;;;;;35.78;12.43;;;;;;;10.80;63.79;101894.34;4953618;28;20705;-81
2022/12/29 08:45:50;;;;;;;48.17;13.20;;;;;;;10.95;63.30;101907.84;4958980;28;20046;-81
2022/12/29 08:48:19;;;;;;;23.23;11.70;;;;;;;11.01;62.94;101884.06;4973425;28;20030;-81
2022/12/29 08:50:45;;;;;;;35.05;13.75;;;;;;;11.15;62.36;101893.97;4983821;28;20113;-82
2022/12/29 08:53:11;;;;;;;26.05;12.10;;;;;;;11.29;61.92;101893.94;4977241;28;20062;-82
2022/12/29 08:55:37;;;;;;;36.72;16.38;;;;;;;11.21;62.14;101896.28;4977967;28;20065;-81
2022/12/29 08:58:02;;;;;;;21.40;10.05;;;;;;;11.09;61.72;101887.16;4978343;28;20085;-81
2022/12/29 09:00:27;;;;;;;23.65;11.63;;;;;;;11.03;61.86;101892.94;4973997;28;20033;-82
2022/12/29 09:02:53;;;;;;;37.15;11.10;;;;;;;11.11;61.64;101865.50;4975130;28;20042;-82
2022/12/29 09:05:19;;;;;;;31.50;12.02;;;;;;;11.31;61.74;101881.28;4972716;28;20042;-82
2022/12/29 09:07:44;;;;;;;23.42;11.15;;;;;;;11.43;61.34;101873.25;4955154;28;20054;-82
2022/12/29 09:10:10;;;;;;;23.70;10.18;;;;;;;11.64;60.86;101879.06;4972023;28;20064;-81
2022/12/29 09:12:35;;;;;;;13.95;5.60;;;;;;;11.76;60.46;101867.50;4972330;28;20410;-82
2022/12/29 09:15:00;;;;;;;17.02;7.68;;;;;;;11.83;59.65;101863.41;4971847;28;20485;-81
2022/12/29 09:17:45;;;;;;;53.85;10.95;;;;;;;11.90;59.35;101859.34;4971923;28;20023;-82
2022/12/29 09:20:13;;;;;;;31.10;11.65;;;;;;;12.05;59.18;101867.38;4972920;28;20038;-83
2022/12/29 09:22:39;;;;;;;39.22;10.75;;;;;;;12.16;58.81;101867.50;4975728;28;20038;-81
2022/12/29 09:25:05;;;;;;;23.35;9.30;;;;;;;12.25;58.37;101869.56;4976304;28;20027;-81
2022/12/29 09:27:30;;;;;;;22.23;10.07;;;;;;;12.23;58.12;101861.56;4975651;28;20450;-82
2022/12/29 09:29:56;;;;;;;26.58;9.95;;;;;;;12.29;57.91;101852.22;4975079;28;20027;-81
2022/12/29 09:32:21;;;;;;;12.40;5.70;;;;;;;12.28;57.02;101863.97;4975431;28;20106;-82
2022/12/29 09:34:47;;;;;;;27.08;7.60;;;;;;;12.25;57.94;101861.47;4975671;28;20053;-83
2022/12/29 09:37:13;;;;;;;17.17;8.32;;;;;;;12.21;57.56;101868.91;4975415;28;20387;-82
2022/12/29 09:39:38;;;;;;;39.78;10.73;;;;;;;12.22;58.00;101864.41;4975438;28;20044;-83
2022/12/29 09:42:13;;;;;;;17.70;9.05;;;;;;;12.29;57.55;101866.53;4975289;28;20090;-82
2022/12/29 09:45:17;;;;;;;22.80;7.32;;;;;;;12.23;57.50;101855.34;4975462;28;20030;-82
2022/12/29 09:47:45;;;;;;;13.77;7.13;;;;;;;12.21;57.37;101846.47;4897264;29;20104;-83
2022/12/29 09:50:28;;;;;;;22.05;8.13;;;;;;;12.27;57.53;101841.53;4897157;29;20040;-81
2022/12/29 09:52:58;;;;;;;26.80;7.80;;;;;;;12.21;57.56;101824.88;4897286;29;20539;-82
2022/12/29 09:55:30;;;;;;;20.35;9.13;;;;;;;12.40;57.38;101836.16;4896907;29;20033;-82
2022/12/29 09:58:05;;;;;;;28.58;10.00;;;;;;;12.52;57.40;101835.28;4896655;29;20136;-81
2022/12/29 10:00:52;;;;;;;45.22;11.02;;;;;;;12.69;57.20;101837.63;4900991;29;20036;-82
2022/12/29 10:03:21;;;;;;;22.13;9.68;;;;;;;12.66;56.37;101832.47;4901077;29;20085;-83
2022/12/29 10:05:52;;;;;;;36.42;9.98;;;;;;;12.72;56.63;101825.78;4897544;29;20044;-80
2022/12/29 10:08:29;;;;;;;27.48;10.77;;;;;;;12.78;56.18;101826.19;4896703;29;20029;-82
2022/12/29 10:11:01;;;;;;;22.90;9.23;;;;;;;12.88;56.35;101823.69;4896013;29;20056;-84
2022/12/29 10:14:01;;;;;;;24.35;10.13;;;;;;;12.87;56.06;101793.13;4895954;29;20092;-83
2022/12/29 10:16:43;;;;;;;23.13;9.45;;;;;;;12.90;55.65;101811.81;4896329;29;20037;-83
2022/12/29 10:19:43;;;;;;;23.95;9.02;;;;;;;12.99;55.72;101808.47;4895532;29;20036;-82
2022/12/29 10:22:19;;;;;;;27.73;9.57;;;;;;;13.12;55.33;101808.44;4896733;29;20134;-82
2022/12/29 10:24:49;;;;;;;18.25;9.05;;;;;;;13.10;55.06;101805.00;4961078;28;20471;-82
2022/12/29 10:27:16;;;;;;;22.30;9.25;;;;;;;12.83;55.37;101791.63;4974685;28;20034;-82
2022/12/29 10:29:53;;;;;;;24.73;10.13;;;;;;;12.83;55.73;101786.25;4976313;28;20549;-81
2022/12/29 10:32:38;;;;;;;30.90;11.27;;;;;;;12.98;55.81;101789.66;4984576;28;20034;-82
2022/12/29 10:35:13;;;;;;;15.95;9.38;;;;;;;12.97;55.56;101772.59;4998240;28;20046;-81
2022/12/29 10:38:03;;;;;;;24.30;11.55;;;;;;;13.18;55.44;101783.69;4995018;28;20046;-82
2022/12/29 10:40:37;;;;;;;26.27;10.60;;;;;;;13.27;55.09;101779.47;4984229;28;20030;-83
2022/12/29 10:43:14;;;;;;;29.40;11.40;;;;;;;13.27;54.58;101769.47;4982520;28;20074;-82
2022/12/29 10:45:40;;;;;;;22.95;11.27;;;;;;;13.42;54.34;101784.56;4975862;28;20042;-83
2022/12/29 10:48:11;;;;;;;32.85;12.32;;;;;;;13.44;54.72;101770.94;4974872;28;20038;-82
2022/12/29 10:50:42;;;;;;;22.63;11.63;;;;;;;13.49;54.05;101774.16;4974644;28;20679;-83
2022/12/29 10:53:17;;;;;;;39.45;12.65;;;;;;;13.48;54.20;101761.63;4974041;28;20023;-82
2022/12/29 10:55:43;;;;;;;43.70;17.30;;;;;;;13.54;54.17;101761.16;4960137;28;20023;-86
2022/12/29 10:58:13;;;;;;;50.72;13.15;;;;;;;13.57;54.05;101771.75;4962872;28;20555;-80
2022/12/29 11:00:39;;;;;;;31.58;11.68;;;;;;;13.57;54.29;101782.56;4976643;28;20035;-85
2022/12/29 11:03:10;;;;;;;28.25;12.23;;;;;;;13.43;54.52;101775.47;4976795;28;20461;-81
2022/12/29 11:06:01;;;;;;;19.15;12.02;;;;;;;13.53;54.46;101770.25;4981198;28;20037;-83
2022/12/29 11:08:35;;;;;;;41.05;11.70;;;;;;;13.56;55.13;101764.59;4979532;28;20404;-81
2022/12/29 11:11:06;;;;;;;28.20;11.80;;;;;;;13.52;55.43;101769.38;4972303;28;20058;-78
2022/12/29 11:13:47;;;;;;;26.83;10.80;;;;;;;13.51;55.74;101769.50;4922527;28;20623;-81
2022/12/29 11:16:12;;;;;;;23.33;11.60;;;;;;;13.44;55.81;101765.53;4973347;28;20351;-81
2022/12/29 11:18:40;;;;;;;20.63;9.65;;;;;;;13.26;56.67;101756.97;4973148;28;20029;-79
2022/12/29 11:21:23;;;;;;;35.88;10.70;;;;;;;12.97;57.47;101761.78;4972524;28;20065;-81
2022/12/29 11:24:04;;;;;;;17.23;8.98;;;;;;;13.05;57.75;101764.81;4971229;28;20030;-80
2022/12/29 11:26:31;;;;;;;24.88;9.85;;;;;;;13.18;57.31;101753.13;4972293;28;20085;-81
2022/12/29 11:29:15;;;;;;;35.22;11.95;;;;;;;13.12;58.31;101757.13;4973014;28;20101;-83
2022/12/29 11:31:46;;;;;;;21.30;9.32;;;;;;;13.04;59.34;101746.88;4972968;28;20027;-81
2022/12/29 11:34:37;;;;;;;19.95;8.20;;;;;;;12.80;59.84;101742.41;4972504;28;20035;-80
2022/12/29 11:37:30;;;;;;;14.73;8.40;;;;;;;12.84;61.02;101754.72;4972569;28;20034;-80
2022/12/29 11:40:04;;;;;;;33.40;9.32;;;;;;;12.83;62.05;101759.25;4954791;28;20039;-82
2022/12/29 11:42:51;;;;;;;26.33;10.50;;;;;;;12.64;61.86;101742.66;4971914;28;20421;-81
2022/12/29 11:45:20;;;;;;;25.27;9.52;;;;;;;12.66;62.40;101739.84;4972797;28;20027;-81
2022/12/29 11:48:17;;;;;;;30.17;12.43;;;;;;;12.81;62.31;101750.38;4954594;29;20027;-82
2022/12/29 11:50:51;;;;;;;26.83;9.80;;;;;;;12.86;62.15;101752.75;4954377;29;20478;-81
2022/12/29 11:53:21;;;;;;;83.22;40.38;;;;;;;12.87;62.20;101749.91;4953860;28;20058;-82
2022/12/29 11:55:59;;;;;;;30.27;10.32;;;;;;;12.65;62.93;101741.69;4955666;29;20031;-81
2022/12/29 11:58:43;;;;;;;25.88;10.27;;;;;;;12.72;63.75;101740.25;4954150;29;20117;-82
2022/12/29 12:01:17;;;;;;;17.77;9.25;;;;;;;12.76;64.27;101747.16;4953771;28;20043;-81
2022/12/29 12:03:58;;;;;;;22.38;8.32;;;;;;;12.73;64.80;101746.50;4954796;28;20023;-81